createdAt,value
2018-12-25T04:26:56.157Z,4.40
2018-12-25T04:29:26.442Z,4.87
2018-12-25T04:32:08.411Z,4.60
2018-12-25T04:34:50.585Z,4.53
2018-12-25T04:37:32.838Z,4.90
2018-12-25T04:40:15.917Z,4.80
2018-12-25T04:42:58.334Z,5.27
2018-12-25T04:45:40.501Z,4.80
2018-12-25T04:48:22.782Z,5.00
2018-12-25T04:51:05.495Z,5.23
2018-12-25T04:53:35.778Z,4.53
2018-12-25T04:56:25.139Z,4.83
2018-12-25T04:59:07.210Z,4.80
2018-12-25T05:01:49.260Z,4.93
2018-12-25T05:04:31.454Z,4.90
2018-12-25T05:07:13.588Z,5.20
2018-12-25T05:09:55.787Z,4.70
2018-12-25T05:12:37.882Z,4.63
2018-12-25T05:15:20.041Z,4.17
2018-12-25T05:18:02.304Z,4.50
2018-12-25T05:20:44.108Z,4.60
2018-12-25T05:23:26.097Z,4.40
2018-12-25T05:26:08.092Z,4.37
2018-12-25T05:28:50.935Z,4.53
2018-12-25T05:31:32.893Z,4.87
2018-12-25T05:34:14.846Z,4.60
2018-12-25T05:36:57.006Z,4.37
2018-12-25T05:39:27.877Z,4.50
2018-12-25T05:42:17.661Z,4.83
2018-12-25T05:44:59.468Z,4.67
2018-12-25T05:47:29.727Z,4.87
2018-12-25T05:50:19.126Z,4.83
2018-12-25T05:53:01.351Z,4.27
2018-12-25T05:55:43.402Z,4.47
2018-12-25T05:58:25.065Z,5.20
2018-12-25T06:01:07.662Z,4.40
2018-12-25T06:03:50.875Z,4.70
2018-12-25T06:06:33.540Z,4.50
2018-12-25T06:09:15.734Z,4.87
2018-12-25T06:11:57.739Z,4.80
2018-12-25T06:14:39.665Z,4.70
2018-12-25T06:17:21.735Z,4.40
2018-12-25T06:20:03.822Z,4.23
2018-12-25T06:22:45.776Z,4.30
2018-12-25T06:25:28.054Z,4.50
2018-12-25T06:28:10.326Z,4.53
2018-12-25T06:30:52.249Z,4.80
2018-12-25T06:33:34.228Z,4.43
2018-12-25T06:36:16.174Z,4.47
2018-12-25T06:38:58.170Z,4.43
2018-12-25T06:41:40.168Z,4.50
2018-12-25T06:44:22.183Z,4.33
2018-12-25T06:46:52.470Z,4.53
2018-12-25T06:49:34.369Z,4.67
2018-12-25T06:52:16.843Z,4.60
2018-12-25T06:54:58.819Z,4.80
2018-12-25T06:57:40.769Z,4.87
2018-12-25T07:00:22.958Z,4.60
2018-12-25T07:03:05.083Z,5.07
2018-12-25T07:05:46.863Z,6.50
2018-12-25T07:08:28.713Z,7.50
2018-12-25T07:10:59.025Z,5.63
2018-12-25T07:13:48.618Z,5.73
2018-12-25T07:16:30.922Z,5.40
2018-12-25T07:19:12.792Z,8.33
2018-12-25T07:21:55.170Z,6.17
2018-12-25T07:24:37.302Z,8.57
2018-12-25T07:27:19.201Z,5.60
2018-12-25T07:29:50.395Z,5.00
2018-12-25T07:32:39.549Z,5.30
2018-12-25T07:35:21.347Z,5.47
2018-12-25T07:38:03.983Z,5.03
2018-12-25T07:40:46.127Z,5.47
2018-12-25T07:43:28.840Z,5.80
2018-12-25T07:46:11.648Z,5.00
2018-12-25T07:48:53.984Z,4.80
2018-12-25T07:54:48.837Z,4.60
2018-12-25T07:57:31.574Z,4.53
2018-12-25T08:00:14.378Z,5.37
2018-12-25T08:02:58.313Z,5.03
2018-12-25T08:05:41.220Z,5.03
2018-12-25T08:08:13.001Z,5.30
2018-12-25T08:11:02.586Z,5.60
2018-12-25T08:13:44.869Z,5.10
2018-12-25T08:16:16.689Z,5.67
2018-12-25T08:18:59.139Z,5.20
2018-12-25T08:21:41.363Z,5.60
2018-12-25T08:24:23.640Z,10.93
2018-12-25T08:27:07.382Z,6.13
2018-12-25T08:29:49.363Z,7.53
2018-12-25T08:32:31.430Z,6.20
2018-12-25T08:35:13.472Z,6.63
2018-12-25T08:37:55.270Z,5.97
2018-12-25T08:40:37.255Z,7.43
2018-12-25T08:43:19.650Z,5.83
2018-12-25T08:46:03.263Z,25.03
2018-12-25T08:48:45.536Z,17.10
2018-12-25T08:51:27.985Z,7.07
2018-12-25T08:54:09.807Z,5.67
2018-12-25T08:56:51.874Z,6.70
2018-12-25T08:59:33.839Z,6.40
2018-12-25T09:02:15.779Z,4.90
2018-12-25T09:04:57.623Z,5.07
2018-12-25T09:07:39.702Z,5.10
2018-12-25T09:10:21.635Z,5.67
2018-12-25T09:13:04.772Z,5.50
2018-12-25T09:15:36.274Z,6.00
2018-12-25T09:18:25.900Z,5.67
2018-12-25T09:21:08.212Z,5.50
2018-12-25T09:23:50.272Z,5.73
2018-12-25T09:26:32.614Z,5.30
2018-12-25T09:29:13.595Z,5.87
2018-12-25T09:31:56.485Z,5.50
2018-12-25T09:34:38.440Z,13.60
2018-12-25T09:37:20.437Z,18.00
2018-12-25T09:40:02.434Z,7.50
2018-12-25T09:42:44.946Z,7.00
2018-12-25T09:45:27.437Z,6.37
2018-12-25T09:48:13.511Z,8.13
2018-12-25T09:50:53.543Z,7.80
2018-12-25T09:53:35.980Z,6.93
2018-12-25T09:56:20.037Z,6.40
2018-12-25T09:59:04.424Z,6.10
2018-12-25T10:01:46.464Z,5.80
2018-12-25T10:04:29.034Z,6.47
2018-12-25T10:07:12.231Z,6.47
2018-12-25T10:09:56.959Z,5.80
2018-12-25T10:12:39.865Z,5.60
2018-12-25T10:15:21.655Z,6.40
2018-12-25T10:18:03.883Z,6.00
2018-12-25T10:20:47.921Z,5.97
2018-12-25T10:23:31.622Z,6.10
2018-12-25T10:26:14.189Z,6.13
2018-12-25T10:28:56.282Z,6.10
2018-12-25T10:31:38.466Z,6.07
2018-12-25T10:34:08.775Z,6.07
2018-12-25T10:36:51.067Z,6.20
2018-12-25T10:39:33.332Z,6.47
2018-12-25T10:42:15.373Z,6.10
2018-12-25T10:44:57.471Z,6.37
2018-12-25T10:47:39.488Z,6.40
2018-12-25T10:50:21.609Z,6.60
2018-12-25T10:53:03.948Z,6.37
2018-12-25T10:55:45.959Z,6.10
2018-12-25T10:58:27.553Z,6.47
2018-12-25T11:01:10.006Z,6.50
2018-12-25T11:03:52.092Z,6.67
2018-12-25T11:06:34.378Z,6.80
2018-12-25T11:09:16.484Z,6.70
2018-12-25T11:11:59.252Z,6.83
2018-12-25T11:14:42.704Z,8.13
2018-12-25T11:17:24.978Z,7.37
2018-12-25T11:20:11.413Z,6.77
2018-12-25T11:22:50.821Z,11.10
2018-12-25T11:25:32.910Z,11.10
2018-12-25T11:28:14.850Z,10.83
2018-12-25T11:30:56.651Z,7.30
2018-12-25T11:33:38.165Z,7.53
2018-12-25T11:36:20.348Z,7.77
2018-12-25T11:39:02.143Z,7.60
2018-12-25T11:41:44.331Z,8.37
2018-12-25T11:44:14.678Z,7.97
2018-12-25T11:47:04.009Z,9.60
2018-12-25T11:49:45.571Z,9.77
2018-12-25T11:52:28.550Z,8.70
2018-12-25T11:55:10.751Z,8.13
2018-12-25T11:57:52.787Z,9.27
2018-12-25T12:00:35.384Z,8.73
2018-12-25T12:03:17.114Z,7.87
2018-12-25T12:06:01.360Z,8.90
2018-12-25T12:08:43.350Z,8.47
2018-12-25T12:14:50.908Z,15.97
2018-12-25T12:17:32.974Z,13.17
2018-12-25T12:20:15.209Z,8.93
2018-12-25T12:22:57.197Z,8.53
2018-12-25T12:25:39.360Z,9.13
2018-12-25T12:28:22.621Z,10.07
2018-12-25T12:31:04.710Z,10.20
2018-12-25T12:33:46.470Z,16.67
2018-12-25T12:36:28.587Z,9.53
2018-12-25T12:39:10.506Z,8.50
2018-12-25T12:41:54.096Z,10.83
2018-12-25T12:44:39.961Z,7.57
2018-12-25T12:47:21.807Z,7.83
2018-12-25T12:50:05.603Z,7.57
2018-12-25T12:52:47.903Z,8.07
2018-12-25T12:55:30.134Z,6.57
2018-12-25T12:58:01.980Z,7.43
2018-12-25T13:01:10.751Z,7.60
2018-12-25T13:03:53.986Z,8.80
2018-12-25T13:06:34.615Z,11.20
2018-12-25T13:09:16.777Z,8.57
2018-12-25T13:11:59.769Z,8.97
2018-12-25T13:14:42.005Z,15.43
2018-12-25T13:17:24.200Z,8.40
2018-12-25T13:20:06.234Z,8.13
2018-12-25T13:22:54.002Z,8.43
2018-12-25T13:25:33.203Z,8.03
2018-12-25T13:28:15.065Z,7.17
2018-12-25T13:30:57.898Z,6.83
2018-12-25T13:33:40.571Z,8.63
2018-12-25T13:36:24.097Z,6.30
2018-12-25T13:39:06.196Z,15.13
2018-12-25T13:41:49.822Z,6.03
2018-12-25T13:44:31.771Z,8.00
2018-12-25T13:47:14.073Z,5.33
2018-12-25T13:49:56.017Z,6.17
2018-12-25T13:52:26.455Z,5.30
2018-12-25T13:55:08.266Z,6.10
2018-12-25T13:57:50.206Z,6.27
2018-12-25T14:00:32.354Z,5.70
2018-12-25T14:03:14.350Z,9.00
2018-12-25T14:05:57.832Z,7.53
2018-12-25T14:08:39.914Z,8.55
2018-12-25T14:11:22.047Z,7.20
2018-12-25T14:14:04.466Z,6.70
2018-12-25T14:16:46.349Z,5.90
2018-12-25T14:19:28.596Z,6.57
2018-12-25T14:22:10.519Z,7.87
2018-12-25T14:24:52.827Z,10.23
2018-12-25T14:27:35.999Z,6.93
2018-12-25T14:30:18.077Z,6.80
2018-12-25T14:33:00.176Z,6.37
2018-12-25T14:35:42.271Z,7.27
2018-12-25T14:38:24.314Z,7.73
2018-12-25T14:41:06.518Z,7.73
2018-12-25T14:43:48.658Z,10.40
2018-12-25T14:46:30.457Z,8.77
2018-12-25T14:49:12.555Z,14.53
2018-12-25T14:51:54.842Z,11.43
2018-12-25T14:54:37.006Z,6.33
2018-12-25T14:57:18.957Z,8.63
2018-12-25T15:00:01.113Z,7.80
2018-12-25T15:02:44.329Z,9.77
2018-12-25T15:05:27.453Z,8.27
2018-12-25T15:08:09.697Z,7.07
2018-12-25T15:10:51.557Z,7.00
2018-12-25T15:13:33.642Z,8.97
2018-12-25T15:16:15.919Z,8.37
2018-12-25T15:18:58.152Z,8.17
2018-12-25T15:21:40.028Z,8.60
2018-12-25T15:24:22.277Z,10.33
2018-12-25T15:27:04.791Z,7.83
2018-12-25T15:29:46.971Z,7.60
2018-12-25T15:32:29.025Z,7.80
2018-12-25T15:34:59.322Z,6.40
2018-12-25T15:37:41.406Z,6.33
2018-12-25T15:40:23.515Z,10.53
2018-12-25T15:43:05.357Z,9.90
2018-12-25T15:45:47.436Z,8.07
2018-12-25T15:48:29.474Z,6.43
2018-12-25T15:51:11.580Z,6.73
2018-12-25T15:53:53.526Z,9.20
2018-12-25T15:56:35.213Z,8.20
2018-12-25T15:59:17.499Z,6.27
2018-12-25T16:01:59.801Z,5.20
2018-12-25T16:04:41.800Z,5.00
2018-12-25T16:07:23.991Z,5.30
2018-12-25T16:10:05.854Z,5.53
2018-12-25T16:12:48.066Z,5.87
2018-12-25T16:15:30.162Z,6.50
2018-12-25T16:18:12.332Z,7.67
2018-12-25T16:20:54.232Z,6.57
2018-12-25T16:23:36.033Z,9.47
2018-12-25T16:26:17.965Z,14.30
2018-12-25T16:28:59.998Z,7.60
2018-12-25T16:31:41.935Z,7.23
2018-12-25T16:34:24.034Z,7.90
2018-12-25T16:37:06.011Z,7.97
2018-12-25T16:39:48.337Z,7.83
2018-12-25T16:42:30.180Z,8.17
2018-12-25T16:45:12.261Z,8.40
2018-12-25T16:47:54.312Z,7.87
2018-12-25T16:50:36.295Z,8.60
2018-12-25T16:53:18.539Z,8.90
2018-12-25T16:56:00.432Z,8.67
2018-12-25T16:58:42.613Z,10.00
2018-12-25T17:01:25.394Z,8.90
2018-12-25T17:04:07.370Z,8.10
2018-12-25T17:06:49.461Z,7.27
2018-12-25T17:09:31.541Z,6.97
2018-12-25T17:12:13.488Z,7.57
2018-12-25T17:14:43.859Z,6.77
2018-12-25T17:17:33.198Z,6.73
2018-12-25T17:20:15.238Z,7.90
2018-12-25T17:22:57.134Z,7.80
2018-12-25T17:25:39.109Z,11.83
2018-12-25T17:28:27.733Z,10.50
2018-12-25T17:31:05.061Z,8.67
2018-12-25T17:33:46.906Z,8.10
2018-12-25T17:36:28.882Z,10.20
2018-12-25T17:39:10.921Z,8.73
2018-12-25T17:41:41.237Z,8.80
2018-12-25T17:44:23.131Z,8.53
2018-12-25T17:47:05.415Z,10.90
2018-12-25T17:49:47.547Z,9.73
2018-12-25T17:52:29.536Z,15.40
2018-12-25T17:55:11.775Z,18.40
2018-12-25T17:57:53.696Z,16.10
2018-12-25T18:00:35.662Z,9.57
2018-12-25T18:03:17.741Z,9.50
2018-12-25T18:06:00.060Z,8.03
2018-12-25T18:08:42.124Z,8.10
2018-12-25T18:11:24.161Z,8.87
2018-12-25T18:14:06.171Z,9.20
2018-12-25T18:16:48.146Z,8.80
2018-12-25T18:19:30.370Z,10.00
2018-12-25T18:22:12.491Z,10.53
2018-12-25T18:24:54.817Z,10.50
2018-12-25T18:27:37.083Z,8.83
2018-12-25T18:30:19.490Z,7.57
2018-12-25T18:33:01.638Z,7.83
2018-12-25T18:35:43.780Z,8.20
2018-12-25T18:38:25.979Z,8.13
2018-12-25T18:41:08.146Z,8.70
2018-12-25T18:43:50.125Z,10.47
2018-12-25T18:46:32.034Z,12.37
2018-12-25T18:49:14.135Z,16.10
2018-12-25T18:51:56.437Z,15.20
2018-12-25T18:54:38.708Z,18.97
2018-12-25T18:57:20.598Z,28.67
2018-12-25T19:00:02.655Z,27.53
2018-12-25T19:02:46.177Z,20.53
2018-12-25T19:05:28.335Z,14.93
2018-12-25T19:08:10.618Z,13.33
2018-12-25T19:10:53.017Z,13.97
2018-12-25T19:13:36.170Z,17.20
2018-12-25T19:16:18.401Z,17.37
2018-12-25T19:19:00.478Z,18.27
2018-12-25T19:21:42.957Z,18.47
2018-12-25T19:24:13.363Z,22.27
2018-12-25T19:26:55.877Z,21.67
2018-12-25T19:29:26.635Z,18.90
2018-12-25T19:32:16.414Z,16.57
2018-12-25T19:34:58.022Z,18.47
2018-12-25T19:37:40.139Z,20.13
2018-12-25T19:40:22.381Z,16.20
2018-12-25T19:43:04.998Z,19.10
2018-12-25T19:45:47.308Z,14.30
2018-12-25T19:48:28.186Z,9.70
2018-12-25T19:51:10.788Z,11.47
2018-12-25T19:53:53.692Z,10.23
2018-12-25T19:56:35.725Z,8.33
2018-12-25T19:59:19.335Z,9.10
2018-12-25T20:02:01.400Z,9.27
2018-12-25T20:04:43.826Z,8.90
2018-12-25T20:07:27.033Z,8.97
2018-12-25T20:10:09.465Z,8.53
2018-12-25T20:12:51.274Z,8.83
2018-12-25T20:15:33.335Z,8.97
2018-12-25T20:18:15.850Z,8.97
2018-12-25T20:20:58.190Z,8.87
2018-12-25T20:23:40.545Z,8.33
2018-12-25T20:26:49.060Z,8.60
2018-12-25T20:29:57.590Z,8.90
2018-12-25T20:32:40.062Z,15.27
2018-12-25T20:35:21.728Z,11.83
2018-12-25T20:38:03.865Z,12.93
2018-12-25T20:40:45.938Z,13.47
2018-12-25T20:43:28.063Z,13.00
2018-12-25T20:46:09.886Z,12.83
2018-12-25T20:48:52.572Z,12.73
2018-12-25T20:51:35.013Z,12.10
2018-12-25T20:54:17.437Z,11.53
2018-12-25T20:57:00.325Z,12.50
2018-12-25T20:59:45.757Z,11.70
2018-12-25T21:02:28.263Z,12.80
2018-12-25T21:05:11.641Z,12.53
2018-12-25T21:07:55.833Z,12.37
2018-12-25T21:10:37.925Z,14.27
2018-12-25T21:13:19.776Z,13.20
2018-12-25T21:16:04.856Z,10.30
2018-12-25T21:18:47.230Z,10.83
2018-12-25T21:21:55.899Z,10.70
2018-12-25T21:24:37.801Z,10.67
2018-12-25T21:27:19.822Z,9.93
2018-12-25T21:30:02.043Z,9.87
2018-12-25T21:32:45.229Z,11.73
2018-12-25T21:35:27.663Z,12.77
2018-12-25T21:38:09.519Z,11.10
2018-12-25T21:40:51.682Z,11.57
2018-12-25T21:43:33.829Z,12.33
2018-12-25T21:46:16.517Z,12.00
2018-12-25T21:49:06.805Z,11.50
2018-12-25T21:51:49.341Z,10.20
2018-12-25T21:54:31.682Z,9.20
